Aérodrome :
LOGIN :

S'inscrire | Disclaimer

   EN    FR    IT 

 










Légende :    VFR   VFR Marginal   IFR   IFR Intensif   IFR Très Intensif
Visi : 
Plafond : 
>= 8 km
>= 3000ft
5 à 8 km
1000 à 3000 ft
1500m à 5 km
500 à 1000 ft
800 à 1500m
200 à 500 ft
< 800m
< 200 ft
Symboles :   Orages  Brouillard  Fortes neiges  Fortes précipitations  Vent > 20 kt
SIGMETs :   Divers  Orages  Givrage  Turbulence  Onde Orograph.  Cendres Volcan.







- Altitude de l'aérodrome : 22 ft
- Code IATA : TUN


DTTA - Tunis Carthage

DERNIER METAR :
  • 161900Z VRB02KT 9999 TS SCT026 FEW033CB 21/16 Q1015 NOSIG

METARs EXPIRÉS :
  • 161830Z 31003KT 9999 TS SCT026 FEW033CB 22/15 Q1015 NOSIG
  • 161800Z 00000KT 9999 TS SCT026 FEW033CB 22/15 Q1015 NOSIG
  • 161730Z 20003KT 180V240 9999 SCT026 22/15 Q1015 NOSIG
  • 161700Z 17004KT 9999 SCT026 22/15 Q1014 NOSIG
  • 161630Z 19003KT 9999 SCT026 23/15 Q1014 NOSIG

TAF TAF DTTA
Valide du 16 à 18h jusqu'au 17 à 18h UTC


161700Z 1618/1718 19005KT 9999 SCT033
BECMG
TEMPO 1623/1717 10017G27KT 3000 TS +SHRA SCT023CB
Pas de NOTAMs connus pour ce terrain.
1 SIGMET publié pour la FIR Tunis (DTTC) :
 
Orages noyés dans la masse
DTTC SIGMET 01 VALID 162000/162400 DTTA DTTC TUNIS FIR EMBD TS OBS N OF N3500 AND EAST OF E1000.CB TOPS BLW FL390 MOV W INTSF.=



MET'MAP, la Météo Aéronautique d'un coup d'oeil ! - Copyright ORBIFLY Décembre 2007 - Disclaimer

ORBIFLY MET'MAP TEAM :

Programmation & Développement : Alexandra Zaïnal
Conception & Développement : Baudouin d'Aumeries
Co-Programmation & Développement : Marc-Olivier Méhu
Soutien technique & logistique : Manuel Goepfert

Contact : metmap@orbifly.com




SOURCES & CREDITS :

   NOAA